createdAt,value
2023-02-19T00:03:25.872Z,12
2023-02-19T00:13:29.695Z,11.8
2023-02-19T00:23:33.732Z,11.8
2023-02-19T00:33:37.609Z,11.1
2023-02-19T00:43:41.497Z,10.8
2023-02-19T00:53:45.536Z,11.1
2023-02-19T01:03:49.364Z,10.6
2023-02-19T01:13:53.334Z,10.6
2023-02-19T01:23:57.371Z,9.9
2023-02-19T01:34:01.452Z,9.7
2023-02-19T01:44:05.153Z,10.2
2023-02-19T01:54:09.054Z,10
2023-02-19T02:04:13.550Z,9.6
2023-02-19T02:14:17.317Z,9.4
2023-02-19T02:24:21.255Z,9.4
2023-02-19T02:34:25.222Z,8.9
2023-02-19T02:44:29.138Z,9.2
2023-02-19T02:54:33.257Z,9.3
2023-02-19T03:02:08.104Z,0
2023-02-19T03:12:12.111Z,9.2
2023-02-19T03:22:16.100Z,9.3
2023-02-19T03:32:20.192Z,8.7
2023-02-19T03:42:24.190Z,8.1
2023-02-19T03:52:28.244Z,7.9
2023-02-19T04:02:32.844Z,8.8
2023-02-19T04:12:37.666Z,8.5
2023-02-19T04:22:42.963Z,8.2
2023-02-19T04:32:48.360Z,7.8
2023-02-19T04:42:54.133Z,8.4
2023-02-19T04:52:59.410Z,7.5
2023-02-19T05:03:04.112Z,7.1
2023-02-19T05:13:08.274Z,6.9
2023-02-19T05:23:12.177Z,7.3
2023-02-19T05:33:16.445Z,7.1
2023-02-19T05:43:20.598Z,7.6
2023-02-19T05:53:24.877Z,9
2023-02-19T06:03:32.771Z,13.1
2023-02-19T06:13:44.257Z,14.6
2023-02-19T06:23:56.615Z,16.3
2023-02-19T06:34:09.129Z,18.3
2023-02-19T06:44:21.860Z,19.9
2023-02-19T06:54:35.012Z,19.9
2023-02-19T07:04:46.367Z,25.4
2023-02-19T07:10:05.258Z,0
2023-02-19T07:20:19.821Z,0
2023-02-19T07:30:34.519Z,38.2
2023-02-19T07:40:46.070Z,38.2
2023-02-19T07:51:02.661Z,38.2
2023-02-19T08:01:17.496Z,38.2
2023-02-19T08:11:34.350Z,38.2
2023-02-19T08:21:50.874Z,38.2
2023-02-19T09:02:12.081Z,0
2023-02-19T09:12:24.430Z,0
2023-02-19T09:22:37.490Z,0
2023-02-19T09:32:55.744Z,0
2023-02-19T09:43:16.673Z,96.6
2023-02-19T09:53:37.107Z,99.3
2023-02-19T10:03:54.795Z,100.6
2023-02-19T10:14:08.410Z,100.6
2023-02-19T10:24:20.602Z,100.6
2023-02-19T10:34:34.566Z,100.6
2023-02-19T10:44:48.407Z,100.6
2023-02-19T10:55:00.324Z,100.6
2023-02-19T11:05:12.290Z,100.6
2023-02-19T11:15:20.219Z,100.6
2023-02-19T11:25:31.560Z,112.8
2023-02-19T11:35:40.102Z,112.8
2023-02-19T11:45:47.981Z,112.8
2023-02-19T11:55:58.196Z,112.8
2023-02-19T12:06:09.354Z,112.8
2023-02-19T12:16:16.140Z,119.5
2023-02-19T12:26:21.885Z,121.3
2023-02-19T12:36:25.915Z,122.3
2023-02-19T12:46:29.618Z,122.3
2023-02-19T12:56:32.961Z,126.3
2023-02-19T13:06:36.417Z,127.6
2023-02-19T13:16:39.864Z,127.9
2023-02-19T13:26:43.026Z,127.9
2023-02-19T13:36:46.302Z,127.9
2023-02-19T13:46:49.516Z,127.9
2023-02-19T13:56:52.252Z,127.9
2023-02-19T14:06:55.806Z,125.3
2023-02-19T14:16:58.496Z,122.8
2023-02-19T14:26:57.458Z,122.8
2023-02-19T14:37:01.134Z,118.8
2023-02-19T14:47:00.766Z,122.5
2023-02-19T14:57:03.075Z,113.2
2023-02-19T15:02:06.870Z,0
2023-02-19T15:12:09.574Z,107.1
2023-02-19T15:22:10.182Z,107.1
2023-02-19T15:32:11.195Z,107.1
2023-02-19T15:42:11.661Z,107.1
2023-02-19T15:52:12.207Z,107.1
2023-02-19T16:02:13.803Z,107.1
2023-02-19T16:12:15.518Z,107.1
2023-02-19T16:22:16.835Z,107.1
2023-02-19T16:32:17.073Z,107.1
2023-02-19T21:02:07.991Z,0
2023-02-19T21:12:07.443Z,0
2023-02-19T21:22:07.629Z,0
2023-02-19T21:32:07.167Z,0
2023-02-19T21:42:06.795Z,0
2023-02-19T21:52:05.874Z,0
2023-02-19T22:02:06.044Z,0
2023-02-19T22:12:06.724Z,0
2023-02-19T22:22:07.559Z,0
2023-02-19T22:32:09.021Z,0
2023-02-19T22:42:08.746Z,0
2023-02-19T22:52:09.998Z,0
2023-02-19T23:02:10.316Z,0
2023-02-19T23:12:10.614Z,0
2023-02-19T23:22:09.698Z,0
2023-02-19T23:32:09.376Z,0
2023-02-19T23:42:09.210Z,0
2023-02-19T23:52:09.329Z,0
